sensor_id;sensor_type;location;lat;lon;timestamp;P1;durP1;ratioP1;P2;durP2;ratioP2
22973;SDS011;11653;50.848;4.584;2022-07-29T00:01:52;5.97;;;2.40;;
22973;SDS011;11653;50.848;4.584;2022-07-29T00:04:18;5.67;;;1.97;;
22973;SDS011;11653;50.848;4.584;2022-07-29T00:06:44;8.17;;;2.13;;
22973;SDS011;11653;50.848;4.584;2022-07-29T00:09:10;5.30;;;2.03;;
22973;SDS011;11653;50.848;4.584;2022-07-29T00:11:36;7.63;;;2.20;;
22973;SDS011;11653;50.848;4.584;2022-07-29T00:14:02;5.47;;;2.40;;
22973;SDS011;11653;50.848;4.584;2022-07-29T00:16:28;7.73;;;2.10;;
22973;SDS011;11653;50.848;4.584;2022-07-29T00:18:53;5.50;;;2.40;;
22973;SDS011;11653;50.848;4.584;2022-07-29T00:21:19;5.97;;;2.30;;
22973;SDS011;11653;50.848;4.584;2022-07-29T00:23:45;4.93;;;2.33;;
22973;SDS011;11653;50.848;4.584;2022-07-29T00:26:10;5.03;;;2.23;;
22973;SDS011;11653;50.848;4.584;2022-07-29T00:28:36;5.67;;;2.23;;
22973;SDS011;11653;50.848;4.584;2022-07-29T00:31:02;6.33;;;2.10;;
22973;SDS011;11653;50.848;4.584;2022-07-29T00:33:28;7.50;;;2.33;;
22973;SDS011;11653;50.848;4.584;2022-07-29T00:35:53;5.33;;;2.43;;
22973;SDS011;11653;50.848;4.584;2022-07-29T00:38:19;6.03;;;2.37;;
22973;SDS011;11653;50.848;4.584;2022-07-29T00:40:46;8.00;;;2.60;;
22973;SDS011;11653;50.848;4.584;2022-07-29T00:43:12;7.97;;;2.17;;
22973;SDS011;11653;50.848;4.584;2022-07-29T00:45:39;4.73;;;2.33;;
22973;SDS011;11653;50.848;4.584;2022-07-29T00:48:08;7.37;;;2.30;;
22973;SDS011;11653;50.848;4.584;2022-07-29T00:50:34;5.00;;;2.50;;
22973;SDS011;11653;50.848;4.584;2022-07-29T00:53:01;5.83;;;2.37;;
22973;SDS011;11653;50.848;4.584;2022-07-29T00:55:28;6.30;;;2.20;;
22973;SDS011;11653;50.848;4.584;2022-07-29T00:57:54;7.40;;;2.57;;
22973;SDS011;11653;50.848;4.584;2022-07-29T01:00:24;6.50;;;2.40;;
22973;SDS011;11653;50.848;4.584;2022-07-29T01:02:51;6.50;;;2.70;;
22973;SDS011;11653;50.848;4.584;2022-07-29T01:05:20;8.80;;;2.47;;
22973;SDS011;11653;50.848;4.584;2022-07-29T01:07:47;7.73;;;2.77;;
22973;SDS011;11653;50.848;4.584;2022-07-29T01:10:14;9.50;;;2.50;;
22973;SDS011;11653;50.848;4.584;2022-07-29T01:12:42;5.03;;;2.33;;
22973;SDS011;11653;50.848;4.584;2022-07-29T01:15:09;7.57;;;2.73;;
22973;SDS011;11653;50.848;4.584;2022-07-29T01:17:38;5.27;;;2.33;;
22973;SDS011;11653;50.848;4.584;2022-07-29T01:20:23;9.17;;;2.40;;
22973;SDS011;11653;50.848;4.584;2022-07-29T01:28:48;7.57;;;2.40;;
22973;SDS011;11653;50.848;4.584;2022-07-29T01:31:16;8.00;;;2.90;;
22973;SDS011;11653;50.848;4.584;2022-07-29T01:33:49;9.87;;;3.10;;
22973;SDS011;11653;50.848;4.584;2022-07-29T01:36:28;5.20;;;2.50;;
22973;SDS011;11653;50.848;4.584;2022-07-29T01:39:18;6.03;;;2.30;;
22973;SDS011;11653;50.848;4.584;2022-07-29T01:41:58;6.67;;;3.00;;
22973;SDS011;11653;50.848;4.584;2022-07-29T01:44:45;6.07;;;2.50;;
22973;SDS011;11653;50.848;4.584;2022-07-29T01:47:37;4.53;;;2.00;;
22973;SDS011;11653;50.848;4.584;2022-07-29T01:50:22;6.33;;;2.60;;
22973;SDS011;11653;50.848;4.584;2022-07-29T01:52:58;5.13;;;2.50;;
22973;SDS011;11653;50.848;4.584;2022-07-29T01:55:28;6.47;;;2.50;;
22973;SDS011;11653;50.848;4.584;2022-07-29T01:57:57;7.57;;;2.20;;
22973;SDS011;11653;50.848;4.584;2022-07-29T02:00:25;10.60;;;3.07;;
22973;SDS011;11653;50.848;4.584;2022-07-29T02:02:52;4.17;;;2.63;;
22973;SDS011;11653;50.848;4.584;2022-07-29T02:05:20;5.83;;;2.43;;
22973;SDS011;11653;50.848;4.584;2022-07-29T02:07:48;4.00;;;2.40;;
22973;SDS011;11653;50.848;4.584;2022-07-29T02:10:16;11.13;;;2.60;;
22973;SDS011;11653;50.848;4.584;2022-07-29T02:12:45;5.67;;;2.60;;
22973;SDS011;11653;50.848;4.584;2022-07-29T02:15:13;7.50;;;2.70;;
22973;SDS011;11653;50.848;4.584;2022-07-29T02:17:42;4.10;;;2.50;;
22973;SDS011;11653;50.848;4.584;2022-07-29T02:20:13;4.47;;;2.27;;
22973;SDS011;11653;50.848;4.584;2022-07-29T02:22:39;7.40;;;3.10;;
22973;SDS011;11653;50.848;4.584;2022-07-29T02:25:09;7.83;;;2.90;;
22973;SDS011;11653;50.848;4.584;2022-07-29T02:27:36;8.50;;;3.03;;
22973;SDS011;11653;50.848;4.584;2022-07-29T02:30:04;6.43;;;2.70;;
22973;SDS011;11653;50.848;4.584;2022-07-29T02:32:31;5.23;;;2.83;;
22973;SDS011;11653;50.848;4.584;2022-07-29T02:34:59;6.03;;;2.63;;
22973;SDS011;11653;50.848;4.584;2022-07-29T02:37:26;5.10;;;2.73;;
22973;SDS011;11653;50.848;4.584;2022-07-29T02:39:54;5.33;;;2.70;;
22973;SDS011;11653;50.848;4.584;2022-07-29T02:42:22;9.70;;;3.43;;
22973;SDS011;11653;50.848;4.584;2022-07-29T02:44:51;7.43;;;2.87;;
22973;SDS011;11653;50.848;4.584;2022-07-29T02:52:41;5.80;;;2.60;;
22973;SDS011;11653;50.848;4.584;2022-07-29T02:55:43;5.30;;;2.73;;
22973;SDS011;11653;50.848;4.584;2022-07-29T03:00:53;6.23;;;3.00;;
22973;SDS011;11653;50.848;4.584;2022-07-29T03:03:22;6.90;;;2.77;;
22973;SDS011;11653;50.848;4.584;2022-07-29T03:05:56;4.87;;;2.63;;
22973;SDS011;11653;50.848;4.584;2022-07-29T03:08:24;4.47;;;2.73;;
22973;SDS011;11653;50.848;4.584;2022-07-29T03:10:52;7.57;;;2.57;;
22973;SDS011;11653;50.848;4.584;2022-07-29T03:13:18;6.93;;;3.40;;
22973;SDS011;11653;50.848;4.584;2022-07-29T03:15:44;6.07;;;2.67;;
22973;SDS011;11653;50.848;4.584;2022-07-29T03:18:11;5.40;;;2.67;;
22973;SDS011;11653;50.848;4.584;2022-07-29T03:20:38;5.33;;;2.90;;
22973;SDS011;11653;50.848;4.584;2022-07-29T03:23:04;3.77;;;2.90;;
22973;SDS011;11653;50.848;4.584;2022-07-29T03:25:30;6.63;;;2.77;;
22973;SDS011;11653;50.848;4.584;2022-07-29T03:27:56;4.63;;;2.60;;
22973;SDS011;11653;50.848;4.584;2022-07-29T03:30:22;5.80;;;2.70;;
22973;SDS011;11653;50.848;4.584;2022-07-29T03:32:49;5.50;;;2.63;;
22973;SDS011;11653;50.848;4.584;2022-07-29T03:35:15;5.40;;;2.60;;
22973;SDS011;11653;50.848;4.584;2022-07-29T03:37:41;4.33;;;2.87;;
22973;SDS011;11653;50.848;4.584;2022-07-29T03:40:08;4.20;;;2.70;;
22973;SDS011;11653;50.848;4.584;2022-07-29T03:42:39;10.47;;;3.37;;
22973;SDS011;11653;50.848;4.584;2022-07-29T03:45:08;6.10;;;2.80;;
22973;SDS011;11653;50.848;4.584;2022-07-29T03:47:38;7.40;;;3.00;;
22973;SDS011;11653;50.848;4.584;2022-07-29T03:50:08;6.30;;;2.90;;
22973;SDS011;11653;50.848;4.584;2022-07-29T03:52:39;7.77;;;3.23;;
22973;SDS011;11653;50.848;4.584;2022-07-29T03:55:06;7.80;;;3.33;;
22973;SDS011;11653;50.848;4.584;2022-07-29T03:57:33;10.77;;;3.20;;
22973;SDS011;11653;50.848;4.584;2022-07-29T04:00:00;9.77;;;2.93;;
22973;SDS011;11653;50.848;4.584;2022-07-29T04:02:28;5.17;;;3.13;;
22973;SDS011;11653;50.848;4.584;2022-07-29T04:04:54;5.57;;;3.07;;
22973;SDS011;11653;50.848;4.584;2022-07-29T04:07:20;7.07;;;2.73;;
22973;SDS011;11653;50.848;4.584;2022-07-29T04:09:45;4.93;;;3.40;;
22973;SDS011;11653;50.848;4.584;2022-07-29T04:12:11;6.77;;;3.03;;
22973;SDS011;11653;50.848;4.584;2022-07-29T04:14:37;5.00;;;3.30;;
22973;SDS011;11653;50.848;4.584;2022-07-29T04:17:03;5.73;;;3.20;;
22973;SDS011;11653;50.848;4.584;2022-07-29T04:19:29;4.67;;;2.97;;
22973;SDS011;11653;50.848;4.584;2022-07-29T04:21:56;5.73;;;3.13;;
22973;SDS011;11653;50.848;4.584;2022-07-29T04:24:22;6.70;;;3.50;;
22973;SDS011;11653;50.848;4.584;2022-07-29T04:26:48;6.17;;;3.27;;
22973;SDS011;11653;50.848;4.584;2022-07-29T04:29:14;7.30;;;3.20;;
22973;SDS011;11653;50.848;4.584;2022-07-29T04:31:40;7.53;;;3.30;;
22973;SDS011;11653;50.848;4.584;2022-07-29T04:34:06;6.40;;;2.77;;
22973;SDS011;11653;50.848;4.584;2022-07-29T04:36:32;4.13;;;2.90;;
22973;SDS011;11653;50.848;4.584;2022-07-29T04:38:57;15.40;;;9.07;;
22973;SDS011;11653;50.848;4.584;2022-07-29T04:41:23;8.23;;;3.27;;
22973;SDS011;11653;50.848;4.584;2022-07-29T04:43:49;11.37;;;3.80;;
22973;SDS011;11653;50.848;4.584;2022-07-29T04:46:15;8.80;;;3.10;;
22973;SDS011;11653;50.848;4.584;2022-07-29T04:48:41;9.50;;;3.67;;
22973;SDS011;11653;50.848;4.584;2022-07-29T04:51:06;4.97;;;3.10;;
22973;SDS011;11653;50.848;4.584;2022-07-29T04:53:32;4.20;;;3.07;;
22973;SDS011;11653;50.848;4.584;2022-07-29T04:55:58;4.90;;;3.50;;
22973;SDS011;11653;50.848;4.584;2022-07-29T04:58:24;9.57;;;3.00;;
22973;SDS011;11653;50.848;4.584;2022-07-29T05:00:50;11.73;;;3.80;;
22973;SDS011;11653;50.848;4.584;2022-07-29T05:03:16;9.17;;;3.17;;
22973;SDS011;11653;50.848;4.584;2022-07-29T05:05:42;6.80;;;3.30;;
22973;SDS011;11653;50.848;4.584;2022-07-29T05:08:07;5.60;;;3.00;;
22973;SDS011;11653;50.848;4.584;2022-07-29T05:10:33;5.80;;;2.77;;
22973;SDS011;11653;50.848;4.584;2022-07-29T05:13:03;5.63;;;3.03;;
22973;SDS011;11653;50.848;4.584;2022-07-29T05:15:30;5.13;;;2.77;;
22973;SDS011;11653;50.848;4.584;2022-07-29T05:17:56;5.70;;;3.13;;
22973;SDS011;11653;50.848;4.584;2022-07-29T05:20:22;6.13;;;2.70;;
22973;SDS011;11653;50.848;4.584;2022-07-29T05:22:51;7.77;;;3.07;;
22973;SDS011;11653;50.848;4.584;2022-07-29T05:25:17;4.73;;;2.37;;
22973;SDS011;11653;50.848;4.584;2022-07-29T05:27:43;5.43;;;2.70;;
22973;SDS011;11653;50.848;4.584;2022-07-29T05:30:09;5.50;;;3.37;;
22973;SDS011;11653;50.848;4.584;2022-07-29T05:32:35;3.57;;;2.87;;
22973;SDS011;11653;50.848;4.584;2022-07-29T05:35:01;4.50;;;2.83;;
22973;SDS011;11653;50.848;4.584;2022-07-29T05:37:26;6.30;;;2.73;;
22973;SDS011;11653;50.848;4.584;2022-07-29T05:39:53;5.77;;;3.10;;
22973;SDS011;11653;50.848;4.584;2022-07-29T05:42:19;6.23;;;3.10;;
22973;SDS011;11653;50.848;4.584;2022-07-29T05:44:45;7.93;;;3.40;;
22973;SDS011;11653;50.848;4.584;2022-07-29T05:47:12;4.87;;;3.40;;
22973;SDS011;11653;50.848;4.584;2022-07-29T05:49:38;6.80;;;3.27;;
22973;SDS011;11653;50.848;4.584;2022-07-29T05:52:04;8.23;;;3.47;;
22973;SDS011;11653;50.848;4.584;2022-07-29T05:54:30;7.43;;;3.53;;
22973;SDS011;11653;50.848;4.584;2022-07-29T05:56:55;7.30;;;3.50;;
22973;SDS011;11653;50.848;4.584;2022-07-29T05:59:21;6.73;;;3.90;;
22973;SDS011;11653;50.848;4.584;2022-07-29T06:01:48;5.63;;;3.97;;
22973;SDS011;11653;50.848;4.584;2022-07-29T06:04:14;5.43;;;3.70;;
22973;SDS011;11653;50.848;4.584;2022-07-29T06:06:40;7.33;;;3.93;;
22973;SDS011;11653;50.848;4.584;2022-07-29T06:09:05;5.77;;;3.70;;
22973;SDS011;11653;50.848;4.584;2022-07-29T06:11:31;4.27;;;3.63;;
22973;SDS011;11653;50.848;4.584;2022-07-29T06:13:57;11.07;;;4.13;;
22973;SDS011;11653;50.848;4.584;2022-07-29T06:16:22;6.80;;;3.40;;
22973;SDS011;11653;50.848;4.584;2022-07-29T06:18:48;8.87;;;3.20;;
22973;SDS011;11653;50.848;4.584;2022-07-29T06:21:14;6.17;;;3.60;;
22973;SDS011;11653;50.848;4.584;2022-07-29T06:23:40;5.27;;;3.30;;
22973;SDS011;11653;50.848;4.584;2022-07-29T06:26:05;6.53;;;2.97;;
22973;SDS011;11653;50.848;4.584;2022-07-29T06:28:31;5.07;;;3.20;;
22973;SDS011;11653;50.848;4.584;2022-07-29T06:30:58;4.80;;;3.00;;
22973;SDS011;11653;50.848;4.584;2022-07-29T06:33:24;7.53;;;2.87;;
22973;SDS011;11653;50.848;4.584;2022-07-29T06:35:50;4.77;;;2.87;;
22973;SDS011;11653;50.848;4.584;2022-07-29T06:38:15;6.73;;;2.70;;
22973;SDS011;11653;50.848;4.584;2022-07-29T06:40:45;6.43;;;2.90;;
22973;SDS011;11653;50.848;4.584;2022-07-29T06:46:06;4.97;;;2.85;;
22973;SDS011;11653;50.848;4.584;2022-07-29T06:48:34;3.65;;;2.67;;
22973;SDS011;11653;50.848;4.584;2022-07-29T06:51:04;5.32;;;2.72;;
22973;SDS011;11653;50.848;4.584;2022-07-29T06:53:31;4.97;;;2.90;;
22973;SDS011;11653;50.848;4.584;2022-07-29T06:55:58;4.60;;;2.70;;
22973;SDS011;11653;50.848;4.584;2022-07-29T06:58:25;4.97;;;3.00;;
22973;SDS011;11653;50.848;4.584;2022-07-29T07:00:52;7.65;;;3.00;;
22973;SDS011;11653;50.848;4.584;2022-07-29T07:03:18;5.28;;;2.70;;
22973;SDS011;11653;50.848;4.584;2022-07-29T07:05:44;5.93;;;3.30;;
22973;SDS011;11653;50.848;4.584;2022-07-29T07:08:11;8.18;;;2.83;;
22973;SDS011;11653;50.848;4.584;2022-07-29T07:10:37;8.02;;;3.85;;
22973;SDS011;11653;50.848;4.584;2022-07-29T07:13:03;9.77;;;3.20;;
22973;SDS011;11653;50.848;4.584;2022-07-29T07:15:29;9.52;;;2.70;;
22973;SDS011;11653;50.848;4.584;2022-07-29T07:17:55;6.47;;;2.55;;
22973;SDS011;11653;50.848;4.584;2022-07-29T07:20:22;6.13;;;2.90;;
22973;SDS011;11653;50.848;4.584;2022-07-29T07:22:48;5.75;;;2.90;;
22973;SDS011;11653;50.848;4.584;2022-07-29T07:25:14;4.55;;;2.92;;
22973;SDS011;11653;50.848;4.584;2022-07-29T07:27:40;3.72;;;2.90;;
22973;SDS011;11653;50.848;4.584;2022-07-29T07:30:06;6.57;;;2.95;;
22973;SDS011;11653;50.848;4.584;2022-07-29T07:32:32;4.25;;;2.40;;
22973;SDS011;11653;50.848;4.584;2022-07-29T07:34:59;3.78;;;2.35;;
22973;SDS011;11653;50.848;4.584;2022-07-29T07:37:25;4.45;;;2.50;;
22973;SDS011;11653;50.848;4.584;2022-07-29T07:39:51;3.22;;;2.00;;
22973;SDS011;11653;50.848;4.584;2022-07-29T07:42:17;8.60;;;2.53;;
22973;SDS011;11653;50.848;4.584;2022-07-29T07:44:43;5.72;;;2.53;;
22973;SDS011;11653;50.848;4.584;2022-07-29T07:47:10;4.07;;;2.80;;
22973;SDS011;11653;50.848;4.584;2022-07-29T07:49:37;5.45;;;2.50;;
22973;SDS011;11653;50.848;4.584;2022-07-29T07:52:03;7.40;;;2.40;;
22973;SDS011;11653;50.848;4.584;2022-07-29T07:54:29;3.47;;;2.20;;
22973;SDS011;11653;50.848;4.584;2022-07-29T07:56:55;4.82;;;1.95;;
22973;SDS011;11653;50.848;4.584;2022-07-29T07:59:20;4.38;;;2.60;;
22973;SDS011;11653;50.848;4.584;2022-07-29T08:01:46;4.10;;;2.22;;
22973;SDS011;11653;50.848;4.584;2022-07-29T08:04:12;3.53;;;1.92;;
22973;SDS011;11653;50.848;4.584;2022-07-29T08:06:38;4.60;;;2.13;;
22973;SDS011;11653;50.848;4.584;2022-07-29T08:09:04;6.38;;;2.40;;
22973;SDS011;11653;50.848;4.584;2022-07-29T08:11:30;6.38;;;2.28;;
22973;SDS011;11653;50.848;4.584;2022-07-29T08:13:56;5.55;;;2.45;;
22973;SDS011;11653;50.848;4.584;2022-07-29T08:16:22;2.72;;;2.10;;
22973;SDS011;11653;50.848;4.584;2022-07-29T08:18:50;4.50;;;2.40;;
22973;SDS011;11653;50.848;4.584;2022-07-29T08:21:16;3.30;;;1.95;;
22973;SDS011;11653;50.848;4.584;2022-07-29T08:23:43;3.63;;;2.40;;
22973;SDS011;11653;50.848;4.584;2022-07-29T08:26:15;6.25;;;2.70;;
22973;SDS011;11653;50.848;4.584;2022-07-29T08:28:42;5.45;;;2.00;;
22973;SDS011;11653;50.848;4.584;2022-07-29T08:31:14;3.40;;;2.40;;
22973;SDS011;11653;50.848;4.584;2022-07-29T08:33:41;4.43;;;2.28;;
22973;SDS011;11653;50.848;4.584;2022-07-29T08:36:08;4.57;;;2.25;;
22973;SDS011;11653;50.848;4.584;2022-07-29T08:38:36;4.88;;;1.83;;
22973;SDS011;11653;50.848;4.584;2022-07-29T08:41:02;4.72;;;2.22;;
22973;SDS011;11653;50.848;4.584;2022-07-29T08:43:28;7.30;;;1.95;;
22973;SDS011;11653;50.848;4.584;2022-07-29T08:45:54;4.57;;;1.92;;
22973;SDS011;11653;50.848;4.584;2022-07-29T08:48:21;6.90;;;1.80;;
22973;SDS011;11653;50.848;4.584;2022-07-29T08:50:50;4.60;;;2.25;;
22973;SDS011;11653;50.848;4.584;2022-07-29T08:53:20;3.55;;;2.00;;
22973;SDS011;11653;50.848;4.584;2022-07-29T08:55:47;4.43;;;1.92;;
22973;SDS011;11653;50.848;4.584;2022-07-29T08:58:17;3.38;;;1.52;;
22973;SDS011;11653;50.848;4.584;2022-07-29T09:01:02;5.07;;;2.30;;
22973;SDS011;11653;50.848;4.584;2022-07-29T09:03:31;4.57;;;1.90;;
22973;SDS011;11653;50.848;4.584;2022-07-29T09:05:59;3.65;;;1.92;;
22973;SDS011;11653;50.848;4.584;2022-07-29T09:08:28;3.58;;;1.80;;
22973;SDS011;11653;50.848;4.584;2022-07-29T09:10:55;2.80;;;1.90;;
22973;SDS011;11653;50.848;4.584;2022-07-29T09:13:21;5.45;;;1.80;;
22973;SDS011;11653;50.848;4.584;2022-07-29T09:15:49;3.95;;;1.58;;
22973;SDS011;11653;50.848;4.584;2022-07-29T09:18:34;3.95;;;1.80;;
22973;SDS011;11653;50.848;4.584;2022-07-29T09:21:03;4.88;;;1.77;;
22973;SDS011;11653;50.848;4.584;2022-07-29T09:23:59;6.57;;;1.75;;
22973;SDS011;11653;50.848;4.584;2022-07-29T09:26:27;7.35;;;1.55;;
22973;SDS011;11653;50.848;4.584;2022-07-29T09:28:55;3.40;;;1.40;;
22973;SDS011;11653;50.848;4.584;2022-07-29T09:31:26;3.22;;;1.45;;
22973;SDS011;11653;50.848;4.584;2022-07-29T09:33:58;3.35;;;1.63;;
22973;SDS011;11653;50.848;4.584;2022-07-29T09:36:25;3.10;;;1.30;;
22973;SDS011;11653;50.848;4.584;2022-07-29T09:38:58;2.83;;;1.20;;
22973;SDS011;11653;50.848;4.584;2022-07-29T09:41:25;3.60;;;1.30;;
22973;SDS011;11653;50.848;4.584;2022-07-29T09:43:56;5.90;;;1.60;;
22973;SDS011;11653;50.848;4.584;2022-07-29T09:46:23;5.22;;;1.65;;
22973;SDS011;11653;50.848;4.584;2022-07-29T09:49:32;4.75;;;1.52;;
22973;SDS011;11653;50.848;4.584;2022-07-29T09:51:39;2.38;;;1.35;;
22973;SDS011;11653;50.848;4.584;2022-07-29T09:54:25;1.83;;;1.17;;
22973;SDS011;11653;50.848;4.584;2022-07-29T09:56:52;2.60;;;1.15;;
22973;SDS011;11653;50.848;4.584;2022-07-29T09:59:19;1.92;;;1.23;;
22973;SDS011;11653;50.848;4.584;2022-07-29T10:01:48;2.30;;;1.48;;
22973;SDS011;11653;50.848;4.584;2022-07-29T10:04:16;3.80;;;1.83;;
22973;SDS011;11653;50.848;4.584;2022-07-29T10:06:59;4.15;;;1.40;;
22973;SDS011;11653;50.848;4.584;2022-07-29T10:09:26;6.18;;;1.67;;
22973;SDS011;11653;50.848;4.584;2022-07-29T10:12:05;3.17;;;1.58;;
22973;SDS011;11653;50.848;4.584;2022-07-29T10:14:31;4.05;;;1.23;;
22973;SDS011;11653;50.848;4.584;2022-07-29T10:16:58;3.25;;;1.60;;
22973;SDS011;11653;50.848;4.584;2022-07-29T10:19:26;1.75;;;1.00;;
22973;SDS011;11653;50.848;4.584;2022-07-29T10:21:53;2.53;;;1.30;;
22973;SDS011;11653;50.848;4.584;2022-07-29T10:24:19;3.58;;;1.52;;
22973;SDS011;11653;50.848;4.584;2022-07-29T10:26:45;1.65;;;1.33;;
22973;SDS011;11653;50.848;4.584;2022-07-29T10:29:12;3.65;;;1.42;;
22973;SDS011;11653;50.848;4.584;2022-07-29T10:31:43;3.95;;;1.60;;
22973;SDS011;11653;50.848;4.584;2022-07-29T10:43:27;4.03;;;1.35;;
22973;SDS011;11653;50.848;4.584;2022-07-29T10:45:58;5.35;;;1.20;;
22973;SDS011;11653;50.848;4.584;2022-07-29T10:48:25;6.05;;;1.70;;
22973;SDS011;11653;50.848;4.584;2022-07-29T10:50:58;3.85;;;1.33;;
22973;SDS011;11653;50.848;4.584;2022-07-29T10:54:07;3.80;;;1.33;;
22973;SDS011;11653;50.848;4.584;2022-07-29T10:56:28;6.78;;;1.40;;
22973;SDS011;11653;50.848;4.584;2022-07-29T11:01:43;2.63;;;1.40;;
22973;SDS011;11653;50.848;4.584;2022-07-29T11:04:09;2.60;;;0.90;;
22973;SDS011;11653;50.848;4.584;2022-07-29T11:09:33;1.70;;;1.10;;
22973;SDS011;11653;50.848;4.584;2022-07-29T11:11:59;3.90;;;1.30;;
22973;SDS011;11653;50.848;4.584;2022-07-29T11:17:22;3.63;;;1.30;;
22973;SDS011;11653;50.848;4.584;2022-07-29T11:19:48;2.50;;;1.00;;
22973;SDS011;11653;50.848;4.584;2022-07-29T11:22:33;3.35;;;1.20;;
22973;SDS011;11653;50.848;4.584;2022-07-29T11:28:07;2.13;;;1.08;;
22973;SDS011;11653;50.848;4.584;2022-07-29T11:30:48;1.25;;;1.13;;
22973;SDS011;11653;50.848;4.584;2022-07-29T11:33:30;2.20;;;1.00;;
22973;SDS011;11653;50.848;4.584;2022-07-29T11:36:13;3.70;;;1.17;;
22973;SDS011;11653;50.848;4.584;2022-07-29T11:38:40;4.32;;;1.17;;
22973;SDS011;11653;50.848;4.584;2022-07-29T11:43:52;4.47;;;1.40;;
22973;SDS011;11653;50.848;4.584;2022-07-29T11:49:07;5.40;;;1.38;;
22973;SDS011;11653;50.848;4.584;2022-07-29T11:51:35;9.32;;;1.50;;
22973;SDS011;11653;50.848;4.584;2022-07-29T11:54:03;1.95;;;1.30;;
22973;SDS011;11653;50.848;4.584;2022-07-29T11:56:33;2.05;;;1.30;;
22973;SDS011;11653;50.848;4.584;2022-07-29T11:59:05;2.92;;;1.10;;
22973;SDS011;11653;50.848;4.584;2022-07-29T12:01:31;5.32;;;1.55;;
22973;SDS011;11653;50.848;4.584;2022-07-29T12:04:04;3.42;;;1.27;;
22973;SDS011;11653;50.848;4.584;2022-07-29T12:06:32;3.67;;;1.45;;
22973;SDS011;11653;50.848;4.584;2022-07-29T12:08:58;3.15;;;1.20;;
22973;SDS011;11653;50.848;4.584;2022-07-29T12:11:25;3.33;;;1.10;;
22973;SDS011;11653;50.848;4.584;2022-07-29T12:13:51;4.00;;;1.40;;
22973;SDS011;11653;50.848;4.584;2022-07-29T12:16:18;3.33;;;1.23;;
22973;SDS011;11653;50.848;4.584;2022-07-29T12:19:05;2.47;;;1.20;;
22973;SDS011;11653;50.848;4.584;2022-07-29T12:21:50;2.97;;;1.30;;
22973;SDS011;11653;50.848;4.584;2022-07-29T12:24:17;7.75;;;1.65;;
22973;SDS011;11653;50.848;4.584;2022-07-29T12:29:20;4.43;;;1.30;;
22973;SDS011;11653;50.848;4.584;2022-07-29T12:31:46;2.83;;;1.20;;
22973;SDS011;11653;50.848;4.584;2022-07-29T12:34:19;5.97;;;1.40;;
22973;SDS011;11653;50.848;4.584;2022-07-29T12:36:46;3.45;;;1.48;;
22973;SDS011;11653;50.848;4.584;2022-07-29T12:39:13;2.63;;;1.40;;
22973;SDS011;11653;50.848;4.584;2022-07-29T12:41:40;2.78;;;1.60;;
22973;SDS011;11653;50.848;4.584;2022-07-29T12:44:06;5.82;;;1.33;;
22973;SDS011;11653;50.848;4.584;2022-07-29T12:46:31;5.43;;;1.95;;
22973;SDS011;11653;50.848;4.584;2022-07-29T12:48:57;2.78;;;1.63;;
22973;SDS011;11653;50.848;4.584;2022-07-29T12:54:20;5.75;;;1.80;;
22973;SDS011;11653;50.848;4.584;2022-07-29T12:56:46;4.38;;;2.00;;
22973;SDS011;11653;50.848;4.584;2022-07-29T12:59:22;5.65;;;1.90;;
22973;SDS011;11653;50.848;4.584;2022-07-29T13:01:49;5.30;;;2.00;;
22973;SDS011;11653;50.848;4.584;2022-07-29T13:04:31;4.82;;;3.13;;
22973;SDS011;11653;50.848;4.584;2022-07-29T13:07:01;5.00;;;2.10;;
22973;SDS011;11653;50.848;4.584;2022-07-29T13:09:40;5.95;;;2.03;;
22973;SDS011;11653;50.848;4.584;2022-07-29T13:12:08;8.80;;;1.75;;
22973;SDS011;11653;50.848;4.584;2022-07-29T13:14:42;6.93;;;2.17;;
22973;SDS011;11653;50.848;4.584;2022-07-29T13:17:13;5.25;;;1.70;;
22973;SDS011;11653;50.848;4.584;2022-07-29T13:19:43;8.65;;;2.13;;
22973;SDS011;11653;50.848;4.584;2022-07-29T13:22:14;7.25;;;2.28;;
22973;SDS011;11653;50.848;4.584;2022-07-29T13:25:00;4.15;;;1.92;;
22973;SDS011;11653;50.848;4.584;2022-07-29T13:27:32;7.70;;;1.90;;
22973;SDS011;11653;50.848;4.584;2022-07-29T13:30:01;7.65;;;1.65;;
22973;SDS011;11653;50.848;4.584;2022-07-29T13:32:31;4.85;;;1.70;;
22973;SDS011;11653;50.848;4.584;2022-07-29T13:35:05;3.55;;;1.90;;
22973;SDS011;11653;50.848;4.584;2022-07-29T13:37:33;3.20;;;1.77;;
22973;SDS011;11653;50.848;4.584;2022-07-29T13:39:59;3.95;;;1.88;;
22973;SDS011;11653;50.848;4.584;2022-07-29T13:42:28;4.80;;;2.10;;
22973;SDS011;11653;50.848;4.584;2022-07-29T13:44:53;6.63;;;1.80;;
22973;SDS011;11653;50.848;4.584;2022-07-29T13:47:19;6.50;;;1.95;;
22973;SDS011;11653;50.848;4.584;2022-07-29T13:49:46;5.47;;;2.20;;
22973;SDS011;11653;50.848;4.584;2022-07-29T13:52:12;6.63;;;2.30;;
22973;SDS011;11653;50.848;4.584;2022-07-29T13:54:38;8.02;;;2.50;;
22973;SDS011;11653;50.848;4.584;2022-07-29T13:57:04;9.95;;;6.25;;
22973;SDS011;11653;50.848;4.584;2022-07-29T13:59:30;8.35;;;2.97;;
22973;SDS011;11653;50.848;4.584;2022-07-29T14:01:55;6.63;;;3.00;;
22973;SDS011;11653;50.848;4.584;2022-07-29T14:04:21;5.90;;;3.05;;
22973;SDS011;11653;50.848;4.584;2022-07-29T14:06:48;6.47;;;3.72;;
22973;SDS011;11653;50.848;4.584;2022-07-29T14:09:14;3.63;;;2.60;;
22973;SDS011;11653;50.848;4.584;2022-07-29T14:11:40;6.68;;;2.80;;
22973;SDS011;11653;50.848;4.584;2022-07-29T14:14:06;4.93;;;2.53;;
22973;SDS011;11653;50.848;4.584;2022-07-29T14:16:31;5.13;;;2.28;;
22973;SDS011;11653;50.848;4.584;2022-07-29T14:18:57;5.68;;;2.10;;
22973;SDS011;11653;50.848;4.584;2022-07-29T14:21:23;9.15;;;2.78;;
22973;SDS011;11653;50.848;4.584;2022-07-29T14:23:48;4.32;;;1.88;;
22973;SDS011;11653;50.848;4.584;2022-07-29T14:26:14;8.60;;;2.67;;
22973;SDS011;11653;50.848;4.584;2022-07-29T14:28:40;3.70;;;2.10;;
22973;SDS011;11653;50.848;4.584;2022-07-29T14:31:05;9.50;;;2.30;;
22973;SDS011;11653;50.848;4.584;2022-07-29T14:33:31;8.10;;;2.83;;
22973;SDS011;11653;50.848;4.584;2022-07-29T14:35:57;3.25;;;1.50;;
22973;SDS011;11653;50.848;4.584;2022-07-29T14:38:22;5.20;;;2.50;;
22973;SDS011;11653;50.848;4.584;2022-07-29T14:40:48;7.25;;;2.20;;
22973;SDS011;11653;50.848;4.584;2022-07-29T14:43:14;7.93;;;1.98;;
22973;SDS011;11653;50.848;4.584;2022-07-29T14:45:40;7.30;;;2.30;;
22973;SDS011;11653;50.848;4.584;2022-07-29T14:48:06;5.78;;;2.05;;
22973;SDS011;11653;50.848;4.584;2022-07-29T14:50:32;4.40;;;2.08;;
22973;SDS011;11653;50.848;4.584;2022-07-29T14:52:58;5.53;;;2.33;;
22973;SDS011;11653;50.848;4.584;2022-07-29T14:55:24;17.25;;;3.13;;
22973;SDS011;11653;50.848;4.584;2022-07-29T14:57:50;8.00;;;2.30;;
22973;SDS011;11653;50.848;4.584;2022-07-29T15:00:16;3.92;;;2.33;;
22973;SDS011;11653;50.848;4.584;2022-07-29T15:02:42;4.38;;;1.92;;
22973;SDS011;11653;50.848;4.584;2022-07-29T15:05:08;5.53;;;2.08;;
22973;SDS011;11653;50.848;4.584;2022-07-29T15:07:33;4.60;;;2.42;;
22973;SDS011;11653;50.848;4.584;2022-07-29T15:09:59;5.05;;;1.73;;
22973;SDS011;11653;50.848;4.584;2022-07-29T15:12:25;3.75;;;1.40;;
22973;SDS011;11653;50.848;4.584;2022-07-29T15:14:50;3.83;;;1.70;;
22973;SDS011;11653;50.848;4.584;2022-07-29T15:17:16;5.15;;;1.73;;
22973;SDS011;11653;50.848;4.584;2022-07-29T15:19:42;3.47;;;1.50;;
22973;SDS011;11653;50.848;4.584;2022-07-29T15:22:07;5.85;;;1.52;;
22973;SDS011;11653;50.848;4.584;2022-07-29T15:24:33;4.70;;;1.65;;
22973;SDS011;11653;50.848;4.584;2022-07-29T15:26:59;6.72;;;2.13;;
22973;SDS011;11653;50.848;4.584;2022-07-29T15:29:24;6.68;;;1.90;;
22973;SDS011;11653;50.848;4.584;2022-07-29T15:31:50;3.78;;;1.75;;
22973;SDS011;11653;50.848;4.584;2022-07-29T15:34:16;5.10;;;1.52;;
22973;SDS011;11653;50.848;4.584;2022-07-29T15:36:41;4.38;;;1.52;;
22973;SDS011;11653;50.848;4.584;2022-07-29T15:39:07;8.00;;;2.10;;
22973;SDS011;11653;50.848;4.584;2022-07-29T15:41:34;4.30;;;1.92;;
22973;SDS011;11653;50.848;4.584;2022-07-29T15:43:59;5.45;;;1.77;;